createdAt,value
2022-12-25T00:00:37.546Z,87.70
2022-12-25T00:03:40.614Z,87.96
2022-12-25T00:06:43.273Z,88.14
2022-12-25T00:09:45.825Z,88.30
2022-12-25T00:12:47.958Z,88.01
2022-12-25T00:15:50.184Z,87.79
2022-12-25T00:18:53.350Z,87.72
2022-12-25T00:21:55.300Z,87.37
2022-12-25T00:24:57.330Z,87.95
2022-12-25T00:27:59.347Z,87.32
2022-12-25T00:31:05.252Z,87.16
2022-12-25T00:34:07.362Z,87.01
2022-12-25T00:37:09.350Z,86.42
2022-12-25T00:40:14.224Z,85.88
2022-12-25T00:43:16.145Z,86.37
2022-12-25T00:46:18.468Z,87.05
2022-12-25T00:49:26.027Z,87.21
2022-12-25T00:52:28.015Z,87.74
2022-12-25T00:55:31.288Z,86.77
2022-12-25T00:58:35.135Z,87.68
2022-12-25T01:01:38.284Z,87.02
2022-12-25T01:04:40.423Z,86.74
2022-12-25T01:07:42.418Z,87.62
2022-12-25T01:10:44.464Z,87.08
2022-12-25T01:13:46.474Z,86.82
2022-12-25T01:16:48.524Z,87.01
2022-12-25T01:19:50.827Z,86.67
2022-12-25T01:22:53.383Z,86.81
2022-12-25T01:25:55.297Z,86.85
2022-12-25T01:28:57.759Z,86.43
2022-12-25T01:31:59.764Z,86.41
2022-12-25T01:35:01.870Z,87.16
2022-12-25T01:38:04.012Z,86.63
2022-12-25T01:41:06.212Z,86.78
2022-12-25T01:44:28.424Z,86.47
2022-12-25T01:47:30.497Z,86.45
2022-12-25T01:50:34.065Z,85.99
2022-12-25T01:53:37.457Z,86.47
2022-12-25T01:56:42.016Z,86.53
2022-12-25T01:59:44.297Z,86.31
2022-12-25T02:02:46.957Z,85.78
2022-12-25T02:05:51.594Z,85.89
2022-12-25T02:08:53.784Z,86.00
2022-12-25T02:11:58.561Z,86.55
2022-12-25T02:15:22.325Z,86.25
2022-12-25T02:18:56.182Z,85.98
2022-12-25T02:22:13.379Z,86.93
2022-12-25T02:25:49.924Z,86.27
2022-12-25T02:29:01.716Z,86.99
2022-12-25T02:32:25.432Z,88.10
2022-12-25T02:35:31.844Z,87.25
2022-12-25T02:38:59.761Z,87.37
2022-12-25T02:42:07.008Z,87.77
2022-12-25T02:45:28.116Z,87.83
2022-12-25T02:48:52.973Z,86.72
2022-12-25T02:52:17.992Z,86.88
2022-12-25T02:55:43.385Z,86.44
2022-12-25T02:59:06.266Z,86.49
2022-12-25T03:02:27.469Z,86.69
2022-12-25T03:05:50.528Z,86.92
2022-12-25T03:09:17.199Z,87.24
2022-12-25T03:12:24.977Z,86.23
2022-12-25T03:15:45.320Z,86.55
2022-12-25T03:18:47.643Z,86.68
2022-12-25T03:22:08.692Z,86.53
2022-12-25T03:25:29.680Z,87.77
2022-12-25T03:28:31.798Z,87.68
2022-12-25T03:31:36.613Z,87.00
2022-12-25T03:35:24.433Z,86.81
2022-12-25T03:38:51.804Z,87.26
2022-12-25T03:42:19.437Z,87.56
2022-12-25T03:45:53.538Z,87.59
2022-12-25T03:49:24.906Z,88.18
2022-12-25T03:52:47.733Z,88.23
2022-12-25T03:56:10.007Z,87.79
2022-12-25T03:59:31.020Z,88.09
2022-12-25T04:02:51.916Z,88.71
2022-12-25T04:06:12.670Z,87.80
2022-12-25T04:09:33.267Z,87.57
2022-12-25T04:12:54.029Z,87.77
2022-12-25T04:16:15.112Z,88.17
2022-12-25T04:19:35.748Z,88.26
2022-12-25T04:22:56.517Z,87.85
2022-12-25T04:26:21.701Z,87.08
2022-12-25T04:29:42.155Z,87.11
2022-12-25T04:33:03.045Z,87.93
2022-12-25T04:36:12.436Z,87.64
2022-12-25T04:39:14.669Z,88.15
2022-12-25T04:42:17.648Z,87.73
2022-12-25T04:45:21.949Z,87.80
2022-12-25T04:48:24.972Z,87.00
2022-12-25T04:51:27.142Z,87.63
2022-12-25T04:54:29.106Z,87.43
2022-12-25T04:57:31.314Z,87.55
2022-12-25T05:00:33.416Z,88.67
2022-12-25T05:03:35.685Z,89.37
2022-12-25T05:06:37.869Z,89.54
2022-12-25T05:09:41.857Z,89.17
2022-12-25T05:12:44.122Z,89.53
2022-12-25T05:15:46.321Z,88.83
2022-12-25T05:18:50.124Z,88.56
2022-12-25T05:21:57.369Z,89.52
2022-12-25T05:24:59.749Z,88.99
2022-12-25T05:28:01.703Z,89.32
2022-12-25T05:31:03.829Z,89.58
2022-12-25T05:34:06.087Z,89.13
2022-12-25T05:37:08.311Z,89.90
2022-12-25T05:40:11.141Z,89.44
2022-12-25T05:43:13.395Z,89.29
2022-12-25T05:46:15.494Z,88.97
2022-12-25T05:49:17.800Z,89.87
2022-12-25T05:52:20.366Z,89.42
2022-12-25T05:55:22.542Z,89.61
2022-12-25T05:58:24.570Z,89.72
2022-12-25T06:01:28.732Z,89.89
2022-12-25T06:04:31.025Z,90.10
2022-12-25T06:07:36.861Z,90.02
2022-12-25T06:10:39.033Z,89.62
2022-12-25T06:13:41.486Z,89.50
2022-12-25T06:16:43.841Z,89.60
2022-12-25T06:19:45.789Z,90.06
2022-12-25T06:22:47.964Z,88.61
2022-12-25T06:25:50.314Z,89.93
2022-12-25T06:28:53.057Z,89.96
2022-12-25T06:31:57.466Z,90.51
2022-12-25T06:34:59.452Z,90.59
2022-12-25T06:38:01.496Z,90.05
2022-12-25T06:41:12.842Z,90.23
2022-12-25T06:44:14.892Z,89.85
2022-12-25T06:47:17.275Z,90.00
2022-12-25T06:50:19.490Z,90.14
2022-12-25T06:53:21.387Z,89.56
2022-12-25T06:56:27.294Z,89.50
2022-12-25T06:59:30.000Z,89.25
2022-12-25T07:02:33.481Z,90.02
2022-12-25T07:05:35.545Z,89.38
2022-12-25T07:08:37.741Z,90.05
2022-12-25T07:11:39.824Z,90.70
2022-12-25T07:14:42.561Z,90.39
2022-12-25T07:17:44.613Z,89.77
2022-12-25T07:20:46.514Z,88.99
2022-12-25T07:23:50.045Z,88.89
2022-12-25T07:26:52.398Z,88.90
2022-12-25T07:29:54.485Z,89.49
2022-12-25T07:32:57.121Z,90.04
2022-12-25T07:35:59.370Z,89.73
2022-12-25T07:39:01.428Z,89.02
2022-12-25T07:42:03.602Z,89.31
2022-12-25T07:45:06.248Z,89.19
2022-12-25T07:48:11.980Z,88.79
2022-12-25T07:51:18.953Z,88.52
2022-12-25T07:54:21.301Z,90.15
2022-12-25T07:57:23.365Z,89.69
2022-12-25T08:00:29.848Z,89.38
2022-12-25T08:03:33.790Z,89.04
2022-12-25T08:06:36.395Z,88.92
2022-12-25T08:09:39.064Z,87.82
2022-12-25T08:12:41.046Z,87.36
2022-12-25T08:15:43.167Z,87.76
2022-12-25T08:18:45.252Z,88.64
2022-12-25T08:21:47.067Z,88.83
2022-12-25T08:24:49.015Z,88.24
2022-12-25T08:27:51.135Z,87.81
2022-12-25T08:30:53.256Z,87.35
2022-12-25T08:33:58.332Z,86.72
2022-12-25T08:37:00.368Z,87.02
2022-12-25T08:40:02.523Z,87.58
2022-12-25T08:43:05.218Z,88.26
2022-12-25T08:46:07.612Z,87.34
2022-12-25T08:49:09.827Z,87.73
2022-12-25T08:52:12.036Z,87.50
2022-12-25T08:55:14.264Z,88.25
2022-12-25T08:58:16.992Z,88.55
2022-12-25T09:01:19.533Z,87.98
2022-12-25T09:04:22.244Z,87.99
2022-12-25T09:07:24.380Z,87.43
2022-12-25T09:10:26.832Z,88.16
2022-12-25T09:13:29.196Z,87.32
2022-12-25T09:16:31.299Z,87.75
2022-12-25T09:19:34.238Z,87.58
2022-12-25T09:22:36.771Z,87.21
2022-12-25T09:25:39.106Z,87.25
2022-12-25T09:28:50.213Z,86.35
2022-12-25T09:31:53.765Z,86.16
2022-12-25T09:34:55.919Z,85.58
2022-12-25T09:37:58.270Z,86.17
2022-12-25T09:41:26.638Z,86.49
2022-12-25T09:44:34.213Z,84.81
2022-12-25T09:47:40.430Z,85.21
2022-12-25T09:50:58.967Z,84.50
2022-12-25T09:54:11.877Z,84.50
2022-12-25T09:57:17.158Z,84.51
2022-12-25T10:00:22.643Z,84.78
2022-12-25T10:03:44.350Z,85.32
2022-12-25T10:07:14.536Z,85.72
2022-12-25T10:10:50.985Z,84.69
2022-12-25T10:13:52.939Z,84.54
2022-12-25T10:17:32.935Z,84.49
2022-12-25T10:20:46.556Z,84.15
2022-12-25T10:24:03.427Z,84.00
2022-12-25T10:27:15.409Z,83.40
2022-12-25T10:30:27.426Z,82.85
2022-12-25T10:33:30.146Z,82.84
2022-12-25T10:36:32.968Z,82.11
2022-12-25T10:39:36.075Z,81.89
2022-12-25T10:42:44.063Z,82.31
2022-12-25T10:45:47.876Z,82.37
2022-12-25T10:48:56.875Z,81.13
2022-12-25T10:52:00.321Z,81.10
2022-12-25T10:55:12.632Z,80.91
2022-12-25T10:58:20.834Z,79.62
2022-12-25T11:01:29.206Z,79.22
2022-12-25T11:04:35.981Z,79.63
2022-12-25T11:07:51.287Z,77.77
2022-12-25T11:10:58.554Z,77.30
2022-12-25T11:14:02.879Z,77.39
2022-12-25T11:17:18.259Z,78.36
2022-12-25T11:20:21.779Z,78.75
2022-12-25T11:23:25.946Z,77.22
2022-12-25T11:26:30.612Z,74.37
2022-12-25T11:29:50.708Z,75.62
2022-12-25T11:32:56.302Z,76.77
2022-12-25T11:36:03.056Z,76.19
2022-12-25T11:39:37.065Z,76.51
2022-12-25T11:42:44.727Z,75.83
2022-12-25T11:46:16.400Z,75.90
2022-12-25T11:49:21.769Z,72.43
2022-12-25T11:52:26.017Z,73.54
2022-12-25T11:55:40.201Z,74.16
2022-12-25T11:58:43.646Z,71.65
2022-12-25T12:01:51.167Z,70.17
2022-12-25T12:05:07.025Z,70.81
2022-12-25T12:08:11.784Z,70.38
2022-12-25T12:11:53.187Z,70.65
2022-12-25T12:15:26.952Z,70.45
2022-12-25T12:18:34.498Z,69.02
2022-12-25T12:21:36.890Z,67.52
2022-12-25T12:24:42.675Z,66.72
2022-12-25T12:27:45.472Z,66.97
2022-12-25T12:30:59.121Z,69.02
2022-12-25T12:34:01.115Z,68.87
2022-12-25T12:37:18.651Z,68.91
2022-12-25T12:40:52.093Z,69.71
2022-12-25T12:44:03.051Z,69.92
2022-12-25T12:47:05.116Z,69.18
2022-12-25T12:50:08.310Z,70.52
2022-12-25T12:53:16.533Z,70.02
2022-12-25T12:56:20.510Z,70.35
2022-12-25T12:59:23.681Z,71.28
2022-12-25T13:02:59.173Z,71.62
2022-12-25T13:06:10.930Z,71.63
2022-12-25T13:09:25.102Z,71.68
2022-12-25T13:12:27.263Z,71.42
2022-12-25T13:15:34.462Z,70.30
2022-12-25T13:18:39.851Z,69.11
2022-12-25T13:21:52.630Z,69.54
2022-12-25T13:24:57.583Z,68.43
2022-12-25T13:27:59.627Z,68.58
2022-12-25T13:31:07.418Z,68.60
2022-12-25T13:34:41.081Z,67.97
2022-12-25T13:37:44.486Z,66.77
2022-12-25T13:41:14.031Z,66.81
2022-12-25T13:44:24.490Z,67.64
2022-12-25T13:47:55.822Z,68.22
2022-12-25T13:51:00.523Z,68.67
2022-12-25T13:54:07.376Z,68.83
2022-12-25T13:57:13.422Z,69.76
2022-12-25T14:00:32.382Z,69.52
2022-12-25T14:03:41.750Z,69.66
2022-12-25T14:06:44.394Z,70.47
2022-12-25T14:09:48.840Z,71.07
2022-12-25T14:12:54.559Z,72.85
2022-12-25T14:15:57.598Z,72.45
2022-12-25T14:19:02.276Z,73.32
2022-12-25T14:22:16.901Z,73.05
2022-12-25T14:25:21.054Z,73.38
2022-12-25T14:28:33.243Z,73.12
2022-12-25T14:31:38.608Z,73.93
2022-12-25T14:34:42.482Z,75.63
2022-12-25T14:37:44.978Z,75.07
2022-12-25T14:40:46.954Z,75.97
2022-12-25T14:43:56.065Z,76.72
2022-12-25T14:47:19.493Z,77.05
2022-12-25T14:50:32.369Z,77.05
2022-12-25T14:53:48.515Z,77.89
2022-12-25T14:56:53.153Z,77.88
2022-12-25T14:59:58.175Z,78.32
2022-12-25T15:03:00.895Z,79.82
2022-12-25T15:06:19.295Z,80.79
2022-12-25T15:09:22.065Z,80.53
2022-12-25T15:12:24.697Z,80.90
2022-12-25T15:15:27.332Z,81.01
2022-12-25T15:18:35.551Z,81.69
2022-12-25T15:21:37.943Z,83.88
2022-12-25T15:24:40.065Z,84.67
2022-12-25T15:27:42.732Z,84.73
2022-12-25T15:30:45.591Z,84.20
2022-12-25T15:33:48.616Z,84.12
2022-12-25T15:36:54.033Z,83.46
2022-12-25T15:39:57.421Z,83.39
2022-12-25T15:42:59.867Z,83.87
2022-12-25T15:46:02.359Z,83.27
2022-12-25T15:49:04.590Z,83.39
2022-12-25T15:52:08.145Z,83.22
2022-12-25T15:55:10.861Z,83.22
2022-12-25T15:58:13.148Z,83.62
2022-12-25T16:01:20.059Z,83.49
2022-12-25T16:04:23.900Z,84.37
2022-12-25T16:07:25.969Z,84.20
2022-12-25T16:10:32.140Z,83.37
2022-12-25T16:13:37.683Z,82.64
2022-12-25T16:16:40.214Z,83.12
2022-12-25T16:19:49.567Z,82.25
2022-12-25T16:22:51.487Z,81.51
2022-12-25T16:25:53.672Z,81.55
2022-12-25T16:28:55.922Z,81.21
2022-12-25T16:31:58.460Z,81.24
2022-12-25T16:35:00.634Z,81.13
2022-12-25T16:38:03.483Z,81.35
2022-12-25T16:41:05.838Z,81.07
2022-12-25T16:44:10.275Z,81.01
2022-12-25T16:47:12.433Z,80.79
2022-12-25T16:50:15.488Z,81.08
2022-12-25T16:53:17.444Z,80.77
2022-12-25T16:56:21.321Z,80.39
2022-12-25T16:59:23.395Z,80.46
2022-12-25T17:02:27.307Z,80.40
2022-12-25T17:05:29.410Z,80.35
2022-12-25T17:08:31.670Z,79.98
2022-12-25T17:11:33.970Z,80.44
2022-12-25T17:14:36.475Z,79.76
2022-12-25T17:17:38.901Z,79.93
2022-12-25T17:20:49.618Z,80.09
2022-12-25T17:23:55.332Z,79.36
2022-12-25T17:27:00.573Z,80.29
2022-12-25T17:30:02.789Z,79.55
2022-12-25T17:33:05.541Z,80.28
2022-12-25T17:36:11.233Z,79.84
2022-12-25T17:39:13.995Z,80.40
2022-12-25T17:42:15.951Z,80.07
2022-12-25T17:45:18.986Z,80.46
2022-12-25T17:48:21.599Z,80.38
2022-12-25T17:51:26.031Z,81.04
2022-12-25T17:54:28.583Z,80.73
2022-12-25T17:57:30.505Z,80.74
2022-12-25T18:00:32.762Z,80.87
2022-12-25T18:03:36.882Z,81.54
2022-12-25T18:06:39.277Z,81.73
2022-12-25T18:09:41.785Z,82.31
2022-12-25T18:12:45.015Z,82.55
2022-12-25T18:15:47.487Z,82.46
2022-12-25T18:18:52.604Z,82.07
2022-12-25T18:21:55.071Z,82.21
2022-12-25T18:24:57.154Z,82.72
2022-12-25T18:28:02.330Z,82.29
2022-12-25T18:31:21.100Z,81.96
2022-12-25T18:34:23.679Z,81.59
2022-12-25T18:37:28.083Z,81.40
2022-12-25T18:40:30.513Z,81.42
2022-12-25T18:43:51.355Z,80.80
2022-12-25T18:46:55.226Z,80.46
2022-12-25T18:49:57.302Z,80.05
2022-12-25T18:53:00.374Z,80.72
2022-12-25T18:56:11.954Z,80.09
2022-12-25T18:59:14.716Z,79.89
2022-12-25T19:02:18.370Z,79.73
2022-12-25T19:05:21.375Z,79.66
2022-12-25T19:08:23.637Z,79.69
2022-12-25T19:11:25.781Z,79.46
2022-12-25T19:14:29.812Z,79.87
2022-12-25T19:17:51.095Z,79.65
2022-12-25T19:20:53.672Z,79.70
2022-12-25T19:23:56.374Z,79.40
2022-12-25T19:26:58.444Z,79.34
2022-12-25T19:30:00.929Z,79.08
2022-12-25T19:33:03.759Z,78.57
2022-12-25T19:36:12.294Z,78.42
2022-12-25T19:39:15.554Z,78.37
2022-12-25T19:42:19.409Z,78.59
2022-12-25T19:45:21.913Z,78.52
2022-12-25T19:48:24.408Z,78.50
2022-12-25T19:51:29.383Z,78.98
2022-12-25T19:54:31.952Z,79.07
2022-12-25T19:57:34.206Z,78.58
2022-12-25T20:00:36.455Z,78.54
2022-12-25T20:03:45.923Z,78.63
2022-12-25T20:06:50.289Z,78.25
2022-12-25T20:09:52.313Z,78.61
2022-12-25T20:12:55.719Z,78.84
2022-12-25T20:16:01.920Z,78.48
2022-12-25T20:19:05.144Z,78.85
2022-12-25T20:22:07.299Z,78.67
2022-12-25T20:25:11.221Z,78.81
2022-12-25T20:28:13.239Z,79.01
2022-12-25T20:31:17.769Z,79.32
2022-12-25T20:34:20.138Z,79.61
2022-12-25T20:37:22.274Z,78.98
2022-12-25T20:40:25.235Z,78.49
2022-12-25T20:43:27.795Z,78.07
2022-12-25T20:46:30.258Z,79.46
2022-12-25T20:49:33.030Z,78.80
2022-12-25T20:52:35.084Z,78.50
2022-12-25T20:55:37.236Z,78.74
2022-12-25T20:58:40.115Z,78.79
2022-12-25T21:01:42.589Z,78.69
2022-12-25T21:04:46.661Z,78.80
2022-12-25T21:07:53.611Z,78.85
2022-12-25T21:11:00.757Z,79.46
2022-12-25T21:14:03.173Z,79.45
2022-12-25T21:17:05.212Z,79.59
2022-12-25T21:20:08.062Z,79.11
2022-12-25T21:23:10.044Z,79.24
2022-12-25T21:26:15.978Z,79.05
2022-12-25T21:29:18.116Z,78.97
2022-12-25T21:32:38.620Z,78.18
2022-12-25T21:35:40.790Z,77.98
2022-12-25T21:38:42.905Z,78.16
2022-12-25T21:41:45.157Z,79.16
2022-12-25T21:44:48.440Z,78.45
2022-12-25T21:47:59.948Z,78.88
2022-12-25T21:51:25.907Z,79.40
2022-12-25T21:54:27.859Z,78.22
2022-12-25T21:57:29.880Z,78.80
2022-12-25T22:00:32.052Z,77.86
2022-12-25T22:03:34.100Z,77.58
2022-12-25T22:06:55.284Z,77.13
2022-12-25T22:09:57.577Z,77.43
2022-12-25T22:13:19.288Z,78.13
2022-12-25T22:16:39.836Z,78.06
2022-12-25T22:19:45.122Z,78.72
2022-12-25T22:22:47.214Z,78.51
2022-12-25T22:25:49.141Z,78.03
2022-12-25T22:28:51.094Z,77.95
2022-12-25T22:31:53.056Z,78.58
2022-12-25T22:34:55.087Z,77.76
2022-12-25T22:37:57.131Z,77.47
2022-12-25T22:40:59.381Z,77.29
2022-12-25T22:44:18.038Z,77.47
2022-12-25T22:47:20.635Z,77.22
2022-12-25T22:50:22.890Z,77.60
2022-12-25T22:53:25.287Z,78.10
2022-12-25T22:56:27.347Z,77.60
2022-12-25T22:59:29.508Z,76.95
2022-12-25T23:02:31.698Z,77.59
2022-12-25T23:05:34.512Z,77.41
2022-12-25T23:08:37.184Z,77.37
2022-12-25T23:11:40.057Z,77.30
2022-12-25T23:14:42.107Z,77.06
2022-12-25T23:18:02.686Z,76.61
2022-12-25T23:21:23.403Z,76.38
2022-12-25T23:24:44.239Z,77.76
2022-12-25T23:27:46.295Z,77.68
2022-12-25T23:30:48.594Z,78.52
2022-12-25T23:33:50.798Z,78.27
2022-12-25T23:36:53.058Z,78.25
2022-12-25T23:39:55.316Z,78.68
2022-12-25T23:42:57.372Z,79.33
2022-12-25T23:45:59.561Z,79.13
2022-12-25T23:49:01.796Z,78.68
2022-12-25T23:52:03.862Z,78.61
2022-12-25T23:55:06.477Z,79.37
2022-12-25T23:58:08.645Z,79.18
